sensor_id;sensor_type;location;lat;lon;timestamp;P1;durP1;ratioP1;P2;durP2;ratioP2
70369;SDS011;57790;51.356;-2.906;2024-01-15T00:00:56;2.77;;;0.50;;
70369;SDS011;57790;51.356;-2.906;2024-01-15T00:03:57;2.83;;;0.60;;
70369;SDS011;57790;51.356;-2.906;2024-01-15T00:06:57;2.23;;;0.57;;
70369;SDS011;57790;51.356;-2.906;2024-01-15T00:09:57;2.40;;;0.70;;
70369;SDS011;57790;51.356;-2.906;2024-01-15T00:12:58;2.50;;;0.77;;
70369;SDS011;57790;51.356;-2.906;2024-01-15T00:15:58;2.87;;;0.70;;
70369;SDS011;57790;51.356;-2.906;2024-01-15T00:18:58;1.90;;;0.70;;
70369;SDS011;57790;51.356;-2.906;2024-01-15T00:21:59;1.87;;;0.50;;
70369;SDS011;57790;51.356;-2.906;2024-01-15T00:24:59;2.97;;;0.70;;
70369;SDS011;57790;51.356;-2.906;2024-01-15T00:28:00;5.37;;;0.70;;
70369;SDS011;57790;51.356;-2.906;2024-01-15T00:31:00;3.67;;;0.80;;
70369;SDS011;57790;51.356;-2.906;2024-01-15T00:34:01;3.60;;;0.90;;
70369;SDS011;57790;51.356;-2.906;2024-01-15T00:37:01;3.22;;;0.68;;
70369;SDS011;57790;51.356;-2.906;2024-01-15T00:40:03;4.07;;;0.90;;
70369;SDS011;57790;51.356;-2.906;2024-01-15T00:43:04;4.60;;;1.00;;
70369;SDS011;57790;51.356;-2.906;2024-01-15T00:46:07;5.53;;;1.15;;
70369;SDS011;57790;51.356;-2.906;2024-01-15T00:49:08;5.40;;;1.60;;
70369;SDS011;57790;51.356;-2.906;2024-01-15T00:52:08;6.07;;;1.37;;
70369;SDS011;57790;51.356;-2.906;2024-01-15T00:55:09;3.87;;;1.20;;
70369;SDS011;57790;51.356;-2.906;2024-01-15T00:58:09;5.93;;;1.17;;
70369;SDS011;57790;51.356;-2.906;2024-01-15T01:01:09;4.73;;;1.17;;
70369;SDS011;57790;51.356;-2.906;2024-01-15T01:04:10;5.43;;;1.10;;
70369;SDS011;57790;51.356;-2.906;2024-01-15T01:07:10;4.18;;;1.00;;
70369;SDS011;57790;51.356;-2.906;2024-01-15T01:10:10;3.80;;;0.87;;
70369;SDS011;57790;51.356;-2.906;2024-01-15T01:13:11;3.90;;;1.00;;
70369;SDS011;57790;51.356;-2.906;2024-01-15T01:16:11;5.73;;;0.93;;
70369;SDS011;57790;51.356;-2.906;2024-01-15T01:19:12;3.73;;;1.00;;
70369;SDS011;57790;51.356;-2.906;2024-01-15T01:22:12;3.83;;;0.80;;
70369;SDS011;57790;51.356;-2.906;2024-01-15T01:25:13;3.30;;;0.70;;
70369;SDS011;57790;51.356;-2.906;2024-01-15T01:28:13;2.83;;;0.70;;
70369;SDS011;57790;51.356;-2.906;2024-01-15T01:31:13;4.60;;;0.80;;
70369;SDS011;57790;51.356;-2.906;2024-01-15T01:34:14;3.20;;;0.70;;
70369;SDS011;57790;51.356;-2.906;2024-01-15T01:37:16;2.53;;;0.50;;
70369;SDS011;57790;51.356;-2.906;2024-01-15T01:40:16;3.00;;;0.70;;
70369;SDS011;57790;51.356;-2.906;2024-01-15T01:43:16;2.37;;;0.70;;
70369;SDS011;57790;51.356;-2.906;2024-01-15T01:46:17;4.05;;;0.70;;
70369;SDS011;57790;51.356;-2.906;2024-01-15T01:49:18;2.13;;;0.60;;
70369;SDS011;57790;51.356;-2.906;2024-01-15T01:52:18;4.32;;;0.50;;
70369;SDS011;57790;51.356;-2.906;2024-01-15T01:55:19;1.73;;;0.60;;
70369;SDS011;57790;51.356;-2.906;2024-01-15T01:58:21;3.07;;;0.60;;
70369;SDS011;57790;51.356;-2.906;2024-01-15T02:01:22;1.83;;;0.40;;
70369;SDS011;57790;51.356;-2.906;2024-01-15T02:04:23;2.07;;;0.63;;
70369;SDS011;57790;51.356;-2.906;2024-01-15T02:07:24;2.10;;;0.50;;
70369;SDS011;57790;51.356;-2.906;2024-01-15T02:10:25;3.83;;;0.63;;
70369;SDS011;57790;51.356;-2.906;2024-01-15T02:13:25;3.13;;;0.50;;
70369;SDS011;57790;51.356;-2.906;2024-01-15T02:16:26;3.23;;;0.70;;
70369;SDS011;57790;51.356;-2.906;2024-01-15T02:19:26;2.63;;;0.70;;
70369;SDS011;57790;51.356;-2.906;2024-01-15T02:22:27;2.30;;;0.53;;
70369;SDS011;57790;51.356;-2.906;2024-01-15T02:25:27;3.83;;;0.60;;
70369;SDS011;57790;51.356;-2.906;2024-01-15T02:28:27;3.13;;;0.50;;
70369;SDS011;57790;51.356;-2.906;2024-01-15T02:31:28;3.28;;;0.65;;
70369;SDS011;57790;51.356;-2.906;2024-01-15T02:34:31;3.33;;;0.50;;
70369;SDS011;57790;51.356;-2.906;2024-01-15T02:37:32;2.53;;;0.60;;
70369;SDS011;57790;51.356;-2.906;2024-01-15T02:40:32;4.53;;;0.80;;
70369;SDS011;57790;51.356;-2.906;2024-01-15T02:43:33;4.50;;;0.70;;
70369;SDS011;57790;51.356;-2.906;2024-01-15T02:46:33;2.80;;;0.63;;
70369;SDS011;57790;51.356;-2.906;2024-01-15T02:49:33;7.47;;;0.77;;
70369;SDS011;57790;51.356;-2.906;2024-01-15T02:52:34;3.47;;;0.93;;
70369;SDS011;57790;51.356;-2.906;2024-01-15T02:55:34;4.70;;;0.70;;
70369;SDS011;57790;51.356;-2.906;2024-01-15T02:58:35;3.13;;;0.70;;
70369;SDS011;57790;51.356;-2.906;2024-01-15T03:01:35;3.60;;;0.70;;
70369;SDS011;57790;51.356;-2.906;2024-01-15T03:04:36;4.05;;;0.70;;
70369;SDS011;57790;51.356;-2.906;2024-01-15T03:07:36;3.07;;;0.67;;
70369;SDS011;57790;51.356;-2.906;2024-01-15T03:10:37;4.37;;;0.87;;
70369;SDS011;57790;51.356;-2.906;2024-01-15T03:13:37;3.30;;;0.73;;
70369;SDS011;57790;51.356;-2.906;2024-01-15T03:16:40;4.87;;;0.87;;
70369;SDS011;57790;51.356;-2.906;2024-01-15T03:19:40;3.35;;;0.77;;
70369;SDS011;57790;51.356;-2.906;2024-01-15T03:22:40;2.77;;;0.73;;
70369;SDS011;57790;51.356;-2.906;2024-01-15T03:25:41;4.13;;;0.73;;
70369;SDS011;57790;51.356;-2.906;2024-01-15T03:28:41;4.30;;;0.83;;
70369;SDS011;57790;51.356;-2.906;2024-01-15T03:31:44;6.20;;;1.00;;
70369;SDS011;57790;51.356;-2.906;2024-01-15T03:34:45;2.93;;;0.90;;
70369;SDS011;57790;51.356;-2.906;2024-01-15T03:37:47;5.30;;;1.00;;
70369;SDS011;57790;51.356;-2.906;2024-01-15T03:40:47;3.13;;;0.83;;
70369;SDS011;57790;51.356;-2.906;2024-01-15T03:43:48;4.20;;;0.83;;
70369;SDS011;57790;51.356;-2.906;2024-01-15T03:46:48;4.32;;;0.75;;
70369;SDS011;57790;51.356;-2.906;2024-01-15T03:49:48;3.27;;;0.80;;
70369;SDS011;57790;51.356;-2.906;2024-01-15T03:52:49;3.50;;;0.80;;
70369;SDS011;57790;51.356;-2.906;2024-01-15T03:55:49;3.60;;;0.90;;
70369;SDS011;57790;51.356;-2.906;2024-01-15T03:58:51;6.82;;;0.90;;
70369;SDS011;57790;51.356;-2.906;2024-01-15T04:01:51;4.73;;;1.00;;
70369;SDS011;57790;51.356;-2.906;2024-01-15T04:04:51;2.67;;;0.73;;
70369;SDS011;57790;51.356;-2.906;2024-01-15T04:07:52;4.67;;;0.77;;
70369;SDS011;57790;51.356;-2.906;2024-01-15T04:10:52;4.80;;;0.65;;
70369;SDS011;57790;51.356;-2.906;2024-01-15T04:13:53;3.97;;;0.70;;
70369;SDS011;57790;51.356;-2.906;2024-01-15T04:16:53;2.63;;;0.50;;
70369;SDS011;57790;51.356;-2.906;2024-01-15T04:19:56;3.38;;;0.70;;
70369;SDS011;57790;51.356;-2.906;2024-01-15T04:22:57;2.90;;;0.70;;
70369;SDS011;57790;51.356;-2.906;2024-01-15T04:25:57;3.50;;;0.70;;
70369;SDS011;57790;51.356;-2.906;2024-01-15T04:28:57;2.60;;;0.60;;
70369;SDS011;57790;51.356;-2.906;2024-01-15T04:31:58;3.08;;;0.77;;
70369;SDS011;57790;51.356;-2.906;2024-01-15T04:34:59;3.07;;;0.60;;
70369;SDS011;57790;51.356;-2.906;2024-01-15T04:37:59;2.50;;;0.60;;
70369;SDS011;57790;51.356;-2.906;2024-01-15T04:41:00;4.87;;;0.80;;
70369;SDS011;57790;51.356;-2.906;2024-01-15T04:44:00;2.07;;;0.60;;
70369;SDS011;57790;51.356;-2.906;2024-01-15T04:47:01;5.07;;;0.65;;
70369;SDS011;57790;51.356;-2.906;2024-01-15T04:50:01;3.33;;;0.60;;
70369;SDS011;57790;51.356;-2.906;2024-01-15T04:53:02;1.87;;;0.50;;
70369;SDS011;57790;51.356;-2.906;2024-01-15T04:56:02;3.17;;;0.60;;
70369;SDS011;57790;51.356;-2.906;2024-01-15T04:59:03;4.53;;;0.60;;
70369;SDS011;57790;51.356;-2.906;2024-01-15T05:02:03;1.65;;;0.43;;
70369;SDS011;57790;51.356;-2.906;2024-01-15T05:05:04;3.70;;;0.50;;
70369;SDS011;57790;51.356;-2.906;2024-01-15T05:08:04;2.13;;;0.47;;
70369;SDS011;57790;51.356;-2.906;2024-01-15T05:11:05;2.83;;;0.70;;
70369;SDS011;57790;51.356;-2.906;2024-01-15T05:14:05;4.47;;;0.50;;
70369;SDS011;57790;51.356;-2.906;2024-01-15T05:17:06;3.07;;;0.60;;
70369;SDS011;57790;51.356;-2.906;2024-01-15T05:20:06;3.33;;;0.70;;
70369;SDS011;57790;51.356;-2.906;2024-01-15T05:23:07;2.90;;;0.50;;
70369;SDS011;57790;51.356;-2.906;2024-01-15T05:26:08;3.28;;;0.80;;
70369;SDS011;57790;51.356;-2.906;2024-01-15T05:29:09;2.83;;;0.70;;
70369;SDS011;57790;51.356;-2.906;2024-01-15T05:32:09;4.40;;;0.80;;
70369;SDS011;57790;51.356;-2.906;2024-01-15T05:35:09;2.77;;;0.60;;
70369;SDS011;57790;51.356;-2.906;2024-01-15T05:38:10;2.63;;;0.50;;
70369;SDS011;57790;51.356;-2.906;2024-01-15T05:41:10;3.17;;;0.67;;
70369;SDS011;57790;51.356;-2.906;2024-01-15T05:44:11;4.27;;;0.63;;
70369;SDS011;57790;51.356;-2.906;2024-01-15T05:47:11;2.42;;;0.50;;
70369;SDS011;57790;51.356;-2.906;2024-01-15T05:50:11;2.10;;;0.50;;
70369;SDS011;57790;51.356;-2.906;2024-01-15T05:53:12;2.13;;;0.47;;
70369;SDS011;57790;51.356;-2.906;2024-01-15T05:56:12;1.43;;;0.40;;
70369;SDS011;57790;51.356;-2.906;2024-01-15T05:59:13;1.97;;;0.50;;
70369;SDS011;57790;51.356;-2.906;2024-01-15T06:02:13;3.37;;;0.50;;
70369;SDS011;57790;51.356;-2.906;2024-01-15T06:05:14;3.23;;;0.60;;
70369;SDS011;57790;51.356;-2.906;2024-01-15T06:08:14;3.40;;;0.43;;
70369;SDS011;57790;51.356;-2.906;2024-01-15T06:11:15;1.77;;;0.40;;
70369;SDS011;57790;51.356;-2.906;2024-01-15T06:14:15;4.33;;;0.60;;
70369;SDS011;57790;51.356;-2.906;2024-01-15T06:17:16;1.80;;;0.60;;
70369;SDS011;57790;51.356;-2.906;2024-01-15T06:20:16;2.73;;;0.40;;
70369;SDS011;57790;51.356;-2.906;2024-01-15T06:23:16;1.87;;;0.47;;
70369;SDS011;57790;51.356;-2.906;2024-01-15T06:26:17;2.93;;;0.50;;
70369;SDS011;57790;51.356;-2.906;2024-01-15T06:29:17;1.83;;;0.40;;
70369;SDS011;57790;51.356;-2.906;2024-01-15T06:32:18;2.85;;;0.50;;
70369;SDS011;57790;51.356;-2.906;2024-01-15T06:35:18;2.90;;;0.50;;
70369;SDS011;57790;51.356;-2.906;2024-01-15T06:38:18;3.13;;;0.50;;
70369;SDS011;57790;51.356;-2.906;2024-01-15T06:41:19;3.10;;;0.60;;
70369;SDS011;57790;51.356;-2.906;2024-01-15T06:44:19;1.50;;;0.40;;
70369;SDS011;57790;51.356;-2.906;2024-01-15T06:47:21;1.92;;;0.40;;
70369;SDS011;57790;51.356;-2.906;2024-01-15T06:50:21;2.10;;;0.50;;
70369;SDS011;57790;51.356;-2.906;2024-01-15T06:53:21;2.60;;;0.40;;
70369;SDS011;57790;51.356;-2.906;2024-01-15T06:56:22;3.75;;;0.47;;
70369;SDS011;57790;51.356;-2.906;2024-01-15T06:59:22;1.37;;;0.40;;
70369;SDS011;57790;51.356;-2.906;2024-01-15T07:02:23;2.37;;;0.50;;
70369;SDS011;57790;51.356;-2.906;2024-01-15T07:05:23;2.67;;;0.50;;
70369;SDS011;57790;51.356;-2.906;2024-01-15T07:08:24;2.50;;;0.50;;
70369;SDS011;57790;51.356;-2.906;2024-01-15T07:11:24;3.30;;;0.77;;
70369;SDS011;57790;51.356;-2.906;2024-01-15T07:14:24;4.40;;;0.40;;
70369;SDS011;57790;51.356;-2.906;2024-01-15T07:17:25;1.90;;;0.50;;
70369;SDS011;57790;51.356;-2.906;2024-01-15T07:20:25;1.77;;;0.50;;
70369;SDS011;57790;51.356;-2.906;2024-01-15T07:23:26;4.07;;;0.60;;
70369;SDS011;57790;51.356;-2.906;2024-01-15T07:26:26;2.23;;;0.50;;
70369;SDS011;57790;51.356;-2.906;2024-01-15T07:29:26;1.57;;;0.40;;
70369;SDS011;57790;51.356;-2.906;2024-01-15T07:32:27;3.63;;;0.57;;
70369;SDS011;57790;51.356;-2.906;2024-01-15T07:35:27;1.70;;;0.33;;
70369;SDS011;57790;51.356;-2.906;2024-01-15T07:38:27;2.83;;;0.50;;
70369;SDS011;57790;51.356;-2.906;2024-01-15T07:41:28;2.53;;;0.40;;
70369;SDS011;57790;51.356;-2.906;2024-01-15T07:44:28;1.80;;;0.40;;
70369;SDS011;57790;51.356;-2.906;2024-01-15T07:47:29;1.83;;;0.50;;
70369;SDS011;57790;51.356;-2.906;2024-01-15T07:50:29;1.97;;;0.50;;
70369;SDS011;57790;51.356;-2.906;2024-01-15T07:53:30;1.45;;;0.30;;
70369;SDS011;57790;51.356;-2.906;2024-01-15T07:56:30;3.07;;;0.30;;
70369;SDS011;57790;51.356;-2.906;2024-01-15T07:59:31;3.08;;;0.50;;
70369;SDS011;57790;51.356;-2.906;2024-01-15T08:02:32;2.90;;;0.60;;
70369;SDS011;57790;51.356;-2.906;2024-01-15T08:05:32;2.40;;;0.47;;
70369;SDS011;57790;51.356;-2.906;2024-01-15T08:08:32;2.95;;;0.38;;
70369;SDS011;57790;51.356;-2.906;2024-01-15T08:11:33;3.93;;;0.50;;
70369;SDS011;57790;51.356;-2.906;2024-01-15T08:14:34;2.03;;;0.60;;
70369;SDS011;57790;51.356;-2.906;2024-01-15T08:17:34;3.33;;;0.47;;
70369;SDS011;57790;51.356;-2.906;2024-01-15T08:20:35;0.90;;;0.30;;
70369;SDS011;57790;51.356;-2.906;2024-01-15T08:23:35;1.77;;;0.30;;
70369;SDS011;57790;51.356;-2.906;2024-01-15T08:26:35;1.63;;;0.43;;
70369;SDS011;57790;51.356;-2.906;2024-01-15T08:29:36;2.93;;;0.40;;
70369;SDS011;57790;51.356;-2.906;2024-01-15T08:32:36;1.83;;;0.50;;
70369;SDS011;57790;51.356;-2.906;2024-01-15T08:35:40;1.77;;;0.40;;
70369;SDS011;57790;51.356;-2.906;2024-01-15T08:38:41;2.23;;;0.40;;
70369;SDS011;57790;51.356;-2.906;2024-01-15T08:41:41;2.35;;;0.60;;
70369;SDS011;57790;51.356;-2.906;2024-01-15T08:44:42;3.27;;;0.60;;
70369;SDS011;57790;51.356;-2.906;2024-01-15T08:47:43;3.20;;;0.43;;
70369;SDS011;57790;51.356;-2.906;2024-01-15T08:50:44;3.53;;;0.95;;
70369;SDS011;57790;51.356;-2.906;2024-01-15T08:53:47;5.47;;;0.80;;
70369;SDS011;57790;51.356;-2.906;2024-01-15T08:56:47;3.53;;;0.70;;
70369;SDS011;57790;51.356;-2.906;2024-01-15T08:59:48;3.33;;;0.60;;
70369;SDS011;57790;51.356;-2.906;2024-01-15T09:02:48;2.97;;;0.50;;
70369;SDS011;57790;51.356;-2.906;2024-01-15T09:05:48;3.83;;;0.60;;
70369;SDS011;57790;51.356;-2.906;2024-01-15T09:08:50;3.10;;;0.60;;
70369;SDS011;57790;51.356;-2.906;2024-01-15T09:11:51;2.23;;;0.50;;
70369;SDS011;57790;51.356;-2.906;2024-01-15T09:14:51;3.67;;;0.50;;
70369;SDS011;57790;51.356;-2.906;2024-01-15T09:17:53;3.13;;;0.37;;
70369;SDS011;57790;51.356;-2.906;2024-01-15T09:20:54;3.72;;;0.55;;
70369;SDS011;57790;51.356;-2.906;2024-01-15T09:23:54;3.17;;;0.50;;
70369;SDS011;57790;51.356;-2.906;2024-01-15T09:26:54;2.60;;;0.40;;
70369;SDS011;57790;51.356;-2.906;2024-01-15T09:29:55;3.27;;;0.53;;
70369;SDS011;57790;51.356;-2.906;2024-01-15T09:32:55;2.07;;;0.40;;
70369;SDS011;57790;51.356;-2.906;2024-01-15T09:35:55;2.97;;;0.43;;
70369;SDS011;57790;51.356;-2.906;2024-01-15T09:38:56;3.27;;;0.40;;
70369;SDS011;57790;51.356;-2.906;2024-01-15T09:41:57;2.50;;;0.50;;
70369;SDS011;57790;51.356;-2.906;2024-01-15T09:44:58;3.47;;;0.60;;
70369;SDS011;57790;51.356;-2.906;2024-01-15T09:47:58;6.15;;;0.52;;
70369;SDS011;57790;51.356;-2.906;2024-01-15T09:50:59;3.00;;;0.50;;
70369;SDS011;57790;51.356;-2.906;2024-01-15T09:54:02;3.35;;;0.60;;
70369;SDS011;57790;51.356;-2.906;2024-01-15T09:57:04;3.60;;;0.45;;
70369;SDS011;57790;51.356;-2.906;2024-01-15T10:00:04;2.27;;;0.50;;
70369;SDS011;57790;51.356;-2.906;2024-01-15T10:03:07;1.88;;;0.30;;
70369;SDS011;57790;51.356;-2.906;2024-01-15T10:06:08;2.80;;;0.50;;
70369;SDS011;57790;51.356;-2.906;2024-01-15T10:09:09;2.95;;;0.40;;
70369;SDS011;57790;51.356;-2.906;2024-01-15T10:12:09;2.93;;;0.50;;
70369;SDS011;57790;51.356;-2.906;2024-01-15T10:15:10;1.25;;;0.38;;
70369;SDS011;57790;51.356;-2.906;2024-01-15T10:18:12;3.13;;;0.50;;
70369;SDS011;57790;51.356;-2.906;2024-01-15T10:21:13;3.22;;;0.40;;
70369;SDS011;57790;51.356;-2.906;2024-01-15T10:24:14;3.80;;;0.50;;
70369;SDS011;57790;51.356;-2.906;2024-01-15T10:27:14;3.20;;;0.50;;
70369;SDS011;57790;51.356;-2.906;2024-01-15T10:30:15;2.27;;;0.40;;
70369;SDS011;57790;51.356;-2.906;2024-01-15T10:33:16;3.47;;;0.40;;
70369;SDS011;57790;51.356;-2.906;2024-01-15T10:36:25;3.10;;;0.40;;
70369;SDS011;57790;51.356;-2.906;2024-01-15T10:39:26;3.33;;;0.50;;
70369;SDS011;57790;51.356;-2.906;2024-01-15T10:42:29;2.45;;;0.40;;
70369;SDS011;57790;51.356;-2.906;2024-01-15T10:45:29;3.50;;;0.50;;
70369;SDS011;57790;51.356;-2.906;2024-01-15T10:48:30;3.10;;;0.60;;
70369;SDS011;57790;51.356;-2.906;2024-01-15T10:51:31;1.35;;;0.30;;
70369;SDS011;57790;51.356;-2.906;2024-01-15T10:54:32;1.70;;;0.40;;
70369;SDS011;57790;51.356;-2.906;2024-01-15T10:57:33;2.35;;;0.40;;
70369;SDS011;57790;51.356;-2.906;2024-01-15T11:00:35;1.57;;;0.37;;
70369;SDS011;57790;51.356;-2.906;2024-01-15T11:03:37;1.67;;;0.30;;
70369;SDS011;57790;51.356;-2.906;2024-01-15T11:06:45;4.00;;;0.40;;
70369;SDS011;57790;51.356;-2.906;2024-01-15T11:09:47;3.92;;;0.70;;
70369;SDS011;57790;51.356;-2.906;2024-01-15T11:12:48;1.47;;;0.40;;
70369;SDS011;57790;51.356;-2.906;2024-01-15T11:15:55;2.40;;;0.40;;
70369;SDS011;57790;51.356;-2.906;2024-01-15T11:21:57;1.67;;;0.30;;
70369;SDS011;57790;51.356;-2.906;2024-01-15T11:25:01;2.40;;;0.37;;
70369;SDS011;57790;51.356;-2.906;2024-01-15T11:28:03;2.45;;;0.35;;
70369;SDS011;57790;51.356;-2.906;2024-01-15T11:31:04;2.83;;;0.40;;
70369;SDS011;57790;51.356;-2.906;2024-01-15T11:34:08;3.10;;;0.53;;
70369;SDS011;57790;51.356;-2.906;2024-01-15T11:37:10;4.43;;;0.55;;
70369;SDS011;57790;51.356;-2.906;2024-01-15T11:40:12;3.33;;;0.50;;
70369;SDS011;57790;51.356;-2.906;2024-01-15T11:43:13;4.37;;;0.47;;
70369;SDS011;57790;51.356;-2.906;2024-01-15T11:46:15;3.80;;;0.43;;
70369;SDS011;57790;51.356;-2.906;2024-01-15T11:49:21;2.25;;;0.55;;
70369;SDS011;57790;51.356;-2.906;2024-01-15T11:52:26;3.72;;;0.50;;
70369;SDS011;57790;51.356;-2.906;2024-01-15T11:58:33;1.53;;;0.40;;
70369;SDS011;57790;51.356;-2.906;2024-01-15T12:01:35;4.07;;;0.60;;
70369;SDS011;57790;51.356;-2.906;2024-01-15T12:04:36;4.03;;;0.50;;
70369;SDS011;57790;51.356;-2.906;2024-01-15T12:07:36;1.87;;;0.50;;
70369;SDS011;57790;51.356;-2.906;2024-01-15T12:10:37;3.07;;;0.50;;
70369;SDS011;57790;51.356;-2.906;2024-01-15T12:13:40;3.17;;;0.55;;
70369;SDS011;57790;51.356;-2.906;2024-01-15T12:16:40;3.90;;;0.50;;
70369;SDS011;57790;51.356;-2.906;2024-01-15T12:19:41;3.57;;;0.60;;
70369;SDS011;57790;51.356;-2.906;2024-01-15T12:22:41;3.30;;;0.50;;
70369;SDS011;57790;51.356;-2.906;2024-01-15T12:25:42;2.83;;;0.50;;
70369;SDS011;57790;51.356;-2.906;2024-01-15T12:28:42;1.45;;;0.32;;
70369;SDS011;57790;51.356;-2.906;2024-01-15T12:31:43;2.73;;;0.40;;
70369;SDS011;57790;51.356;-2.906;2024-01-15T12:34:43;2.63;;;0.40;;
70369;SDS011;57790;51.356;-2.906;2024-01-15T12:37:44;4.10;;;0.70;;
70369;SDS011;57790;51.356;-2.906;2024-01-15T12:40:46;3.42;;;0.55;;
70369;SDS011;57790;51.356;-2.906;2024-01-15T12:43:46;4.47;;;0.90;;
70369;SDS011;57790;51.356;-2.906;2024-01-15T12:46:47;4.22;;;0.45;;
70369;SDS011;57790;51.356;-2.906;2024-01-15T12:49:48;3.23;;;0.67;;
70369;SDS011;57790;51.356;-2.906;2024-01-15T12:52:50;4.55;;;0.50;;
70369;SDS011;57790;51.356;-2.906;2024-01-15T12:55:50;3.63;;;0.60;;
70369;SDS011;57790;51.356;-2.906;2024-01-15T12:58:52;2.22;;;0.40;;
70369;SDS011;57790;51.356;-2.906;2024-01-15T13:01:52;3.80;;;0.40;;
70369;SDS011;57790;51.356;-2.906;2024-01-15T13:04:52;5.50;;;0.63;;
70369;SDS011;57790;51.356;-2.906;2024-01-15T13:07:54;2.03;;;0.50;;
70369;SDS011;57790;51.356;-2.906;2024-01-15T13:10:54;1.00;;;0.43;;
70369;SDS011;57790;51.356;-2.906;2024-01-15T13:13:56;3.60;;;0.60;;
70369;SDS011;57790;51.356;-2.906;2024-01-15T13:16:58;2.73;;;0.40;;
70369;SDS011;57790;51.356;-2.906;2024-01-15T13:19:59;2.55;;;0.50;;
70369;SDS011;57790;51.356;-2.906;2024-01-15T13:23:00;1.97;;;0.30;;
70369;SDS011;57790;51.356;-2.906;2024-01-15T13:26:00;1.02;;;0.22;;
70369;SDS011;57790;51.356;-2.906;2024-01-15T13:29:01;2.30;;;0.40;;
70369;SDS011;57790;51.356;-2.906;2024-01-15T13:32:01;1.97;;;0.47;;
70369;SDS011;57790;51.356;-2.906;2024-01-15T13:35:02;2.67;;;0.40;;
70369;SDS011;57790;51.356;-2.906;2024-01-15T13:38:05;1.30;;;0.40;;
70369;SDS011;57790;51.356;-2.906;2024-01-15T13:41:06;2.40;;;0.40;;
70369;SDS011;57790;51.356;-2.906;2024-01-15T13:44:06;2.97;;;0.43;;
70369;SDS011;57790;51.356;-2.906;2024-01-15T13:47:07;2.10;;;0.43;;
70369;SDS011;57790;51.356;-2.906;2024-01-15T13:50:07;2.80;;;0.30;;
70369;SDS011;57790;51.356;-2.906;2024-01-15T13:53:08;4.03;;;0.33;;
70369;SDS011;57790;51.356;-2.906;2024-01-15T13:56:09;1.70;;;0.40;;
70369;SDS011;57790;51.356;-2.906;2024-01-15T13:59:10;1.30;;;0.30;;
70369;SDS011;57790;51.356;-2.906;2024-01-15T14:02:11;2.50;;;0.40;;
70369;SDS011;57790;51.356;-2.906;2024-01-15T14:05:11;2.43;;;0.50;;
70369;SDS011;57790;51.356;-2.906;2024-01-15T14:08:12;1.77;;;0.40;;
70369;SDS011;57790;51.356;-2.906;2024-01-15T14:11:13;2.93;;;0.50;;
70369;SDS011;57790;51.356;-2.906;2024-01-15T14:14:13;1.90;;;0.40;;
70369;SDS011;57790;51.356;-2.906;2024-01-15T14:17:14;1.90;;;0.43;;
70369;SDS011;57790;51.356;-2.906;2024-01-15T14:20:15;2.45;;;0.32;;
70369;SDS011;57790;51.356;-2.906;2024-01-15T14:23:15;3.00;;;0.50;;
70369;SDS011;57790;51.356;-2.906;2024-01-15T14:26:15;2.60;;;0.30;;
70369;SDS011;57790;51.356;-2.906;2024-01-15T14:29:16;1.90;;;0.40;;
70369;SDS011;57790;51.356;-2.906;2024-01-15T14:32:18;1.17;;;0.30;;
70369;SDS011;57790;51.356;-2.906;2024-01-15T14:35:19;1.50;;;0.40;;
70369;SDS011;57790;51.356;-2.906;2024-01-15T14:38:19;2.20;;;0.30;;
70369;SDS011;57790;51.356;-2.906;2024-01-15T14:41:19;2.67;;;0.30;;
70369;SDS011;57790;51.356;-2.906;2024-01-15T14:44:20;1.55;;;0.30;;
70369;SDS011;57790;51.356;-2.906;2024-01-15T14:47:21;1.30;;;0.30;;
70369;SDS011;57790;51.356;-2.906;2024-01-15T14:50:24;2.00;;;0.40;;
70369;SDS011;57790;51.356;-2.906;2024-01-15T14:53:24;2.10;;;0.40;;
70369;SDS011;57790;51.356;-2.906;2024-01-15T14:56:25;1.10;;;0.33;;
70369;SDS011;57790;51.356;-2.906;2024-01-15T14:59:25;2.45;;;0.30;;
70369;SDS011;57790;51.356;-2.906;2024-01-15T15:02:28;4.37;;;0.40;;
70369;SDS011;57790;51.356;-2.906;2024-01-15T15:05:29;1.83;;;0.35;;
70369;SDS011;57790;51.356;-2.906;2024-01-15T15:08:29;3.03;;;0.40;;
70369;SDS011;57790;51.356;-2.906;2024-01-15T15:11:29;2.77;;;0.50;;
70369;SDS011;57790;51.356;-2.906;2024-01-15T15:14:30;3.97;;;0.50;;
70369;SDS011;57790;51.356;-2.906;2024-01-15T15:17:31;3.75;;;0.40;;
70369;SDS011;57790;51.356;-2.906;2024-01-15T15:20:32;0.83;;;0.30;;
70369;SDS011;57790;51.356;-2.906;2024-01-15T15:23:32;3.00;;;0.50;;
70369;SDS011;57790;51.356;-2.906;2024-01-15T15:26:33;2.13;;;0.43;;
70369;SDS011;57790;51.356;-2.906;2024-01-15T15:29:33;1.67;;;0.40;;
70369;SDS011;57790;51.356;-2.906;2024-01-15T15:32:35;2.70;;;0.40;;
70369;SDS011;57790;51.356;-2.906;2024-01-15T15:35:35;0.80;;;0.40;;
70369;SDS011;57790;51.356;-2.906;2024-01-15T15:38:39;2.30;;;0.32;;
70369;SDS011;57790;51.356;-2.906;2024-01-15T15:41:39;2.57;;;0.40;;
70369;SDS011;57790;51.356;-2.906;2024-01-15T15:44:40;1.63;;;0.40;;
70369;SDS011;57790;51.356;-2.906;2024-01-15T15:47:46;1.80;;;0.40;;
70369;SDS011;57790;51.356;-2.906;2024-01-15T15:50:46;2.70;;;0.40;;
70369;SDS011;57790;51.356;-2.906;2024-01-15T15:53:47;2.37;;;0.30;;
70369;SDS011;57790;51.356;-2.906;2024-01-15T15:56:47;3.58;;;0.40;;
70369;SDS011;57790;51.356;-2.906;2024-01-15T15:59:50;1.83;;;0.50;;
70369;SDS011;57790;51.356;-2.906;2024-01-15T16:02:50;2.57;;;0.50;;
70369;SDS011;57790;51.356;-2.906;2024-01-15T16:05:51;2.43;;;0.43;;
70369;SDS011;57790;51.356;-2.906;2024-01-15T16:08:51;1.17;;;0.40;;
70369;SDS011;57790;51.356;-2.906;2024-01-15T16:11:51;3.13;;;0.50;;
70369;SDS011;57790;51.356;-2.906;2024-01-15T16:14:52;2.37;;;0.50;;
70369;SDS011;57790;51.356;-2.906;2024-01-15T16:17:52;1.43;;;0.40;;
70369;SDS011;57790;51.356;-2.906;2024-01-15T16:20:53;2.43;;;0.50;;
70369;SDS011;57790;51.356;-2.906;2024-01-15T16:23:54;1.27;;;0.32;;
70369;SDS011;57790;51.356;-2.906;2024-01-15T16:26:54;3.83;;;0.70;;
70369;SDS011;57790;51.356;-2.906;2024-01-15T16:29:55;2.70;;;0.57;;
70369;SDS011;57790;51.356;-2.906;2024-01-15T16:32:55;3.87;;;0.50;;
70369;SDS011;57790;51.356;-2.906;2024-01-15T16:35:58;3.78;;;0.47;;
70369;SDS011;57790;51.356;-2.906;2024-01-15T16:39:00;4.23;;;1.17;;
70369;SDS011;57790;51.356;-2.906;2024-01-15T16:42:00;2.87;;;0.50;;
70369;SDS011;57790;51.356;-2.906;2024-01-15T16:45:01;2.97;;;0.50;;
70369;SDS011;57790;51.356;-2.906;2024-01-15T16:48:01;4.33;;;0.50;;
70369;SDS011;57790;51.356;-2.906;2024-01-15T16:51:01;1.70;;;0.37;;
70369;SDS011;57790;51.356;-2.906;2024-01-15T16:54:02;2.47;;;0.40;;
70369;SDS011;57790;51.356;-2.906;2024-01-15T16:57:03;3.60;;;0.50;;
70369;SDS011;57790;51.356;-2.906;2024-01-15T17:00:03;2.13;;;0.47;;
70369;SDS011;57790;51.356;-2.906;2024-01-15T17:03:04;4.85;;;0.52;;
70369;SDS011;57790;51.356;-2.906;2024-01-15T17:06:05;3.87;;;0.53;;
70369;SDS011;57790;51.356;-2.906;2024-01-15T17:09:05;3.73;;;0.60;;
70369;SDS011;57790;51.356;-2.906;2024-01-15T17:12:06;4.22;;;0.65;;
70369;SDS011;57790;51.356;-2.906;2024-01-15T17:15:07;3.70;;;0.70;;
70369;SDS011;57790;51.356;-2.906;2024-01-15T17:18:08;2.97;;;0.50;;
70369;SDS011;57790;51.356;-2.906;2024-01-15T17:21:08;2.83;;;0.70;;
70369;SDS011;57790;51.356;-2.906;2024-01-15T17:24:08;3.03;;;0.60;;
70369;SDS011;57790;51.356;-2.906;2024-01-15T17:27:09;4.97;;;0.60;;
70369;SDS011;57790;51.356;-2.906;2024-01-15T17:30:09;2.40;;;0.60;;
70369;SDS011;57790;51.356;-2.906;2024-01-15T17:33:09;4.80;;;0.60;;
70369;SDS011;57790;51.356;-2.906;2024-01-15T17:36:10;3.77;;;0.87;;
70369;SDS011;57790;51.356;-2.906;2024-01-15T17:39:10;2.77;;;0.87;;
70369;SDS011;57790;51.356;-2.906;2024-01-15T17:42:11;3.10;;;0.70;;
70369;SDS011;57790;51.356;-2.906;2024-01-15T17:45:12;4.28;;;0.70;;
70369;SDS011;57790;51.356;-2.906;2024-01-15T17:48:12;4.20;;;0.80;;
70369;SDS011;57790;51.356;-2.906;2024-01-15T17:51:16;2.90;;;0.60;;
70369;SDS011;57790;51.356;-2.906;2024-01-15T17:54:18;3.53;;;0.60;;
70369;SDS011;57790;51.356;-2.906;2024-01-15T17:57:18;6.43;;;0.80;;